createdAt,value
2023-12-19T00:03:44.197Z,76.93
2023-12-19T00:13:48.034Z,76.76
2023-12-19T00:23:51.957Z,76.49
2023-12-19T00:33:56.055Z,76.29
2023-12-19T00:44:01.980Z,75.90
2023-12-19T00:54:06.274Z,75.86
2023-12-19T01:04:10.857Z,75.97
2023-12-19T01:14:14.684Z,76.26
2023-12-19T01:24:18.558Z,76.52
2023-12-19T01:34:23.059Z,76.78
2023-12-19T01:44:27.042Z,77.32
2023-12-19T01:54:31.475Z,77.54
2023-12-19T02:04:35.476Z,77.67
2023-12-19T02:14:40.305Z,77.69
2023-12-19T02:24:45.539Z,77.70
2023-12-19T02:34:50.617Z,77.71
2023-12-19T02:44:54.420Z,77.79
2023-12-19T02:54:58.315Z,77.67
2023-12-19T03:05:02.508Z,77.57
2023-12-19T03:15:07.579Z,77.42
2023-12-19T03:25:11.618Z,77.50
2023-12-19T03:35:15.675Z,77.45
2023-12-19T03:45:20.367Z,77.52
2023-12-19T03:55:24.149Z,77.60
2023-12-19T04:05:28.090Z,77.77
2023-12-19T04:15:32.074Z,78.45
2023-12-19T04:25:36.929Z,78.29
2023-12-19T04:35:40.873Z,78.26
2023-12-19T04:45:44.731Z,78.14
2023-12-19T04:55:48.680Z,78.23
2023-12-19T05:05:52.702Z,78.20
2023-12-19T05:15:56.938Z,77.99
2023-12-19T05:26:00.846Z,77.85
2023-12-19T05:36:04.978Z,77.69
2023-12-19T05:46:08.880Z,77.50
2023-12-19T05:56:14.775Z,77.31
2023-12-19T06:06:18.886Z,77.08
2023-12-19T06:16:23.188Z,76.53
2023-12-19T06:26:27.068Z,76.23
2023-12-19T06:36:33.158Z,75.83
2023-12-19T06:46:37.038Z,75.30
2023-12-19T06:56:41.488Z,74.95
2023-12-19T07:06:46.256Z,74.84
2023-12-19T07:16:50.098Z,74.80
2023-12-19T07:26:57.543Z,74.56
2023-12-19T07:37:01.963Z,74.78
2023-12-19T07:47:06.100Z,74.96
2023-12-19T07:57:09.948Z,75.01
2023-12-19T08:07:14.212Z,75.05
2023-12-19T08:17:20.271Z,74.99
2023-12-19T08:27:28.236Z,74.95
2023-12-19T08:37:32.714Z,74.57
2023-12-19T08:47:36.620Z,74.42
2023-12-19T08:57:44.058Z,74.11
2023-12-19T09:07:48.536Z,73.83
2023-12-19T09:17:52.482Z,73.57
2023-12-19T09:27:57.450Z,73.50
2023-12-19T09:38:03.045Z,73.50
2023-12-19T09:48:10.540Z,73.64
2023-12-19T09:58:17.134Z,73.80
2023-12-19T10:08:21.111Z,74.04
2023-12-19T10:18:31.206Z,74.23
2023-12-19T10:28:39.450Z,74.17
2023-12-19T10:38:49.833Z,74.47
2023-12-19T10:48:55.964Z,74.64
2023-12-19T10:59:02.854Z,74.87
2023-12-19T11:09:09.806Z,74.94
2023-12-19T11:19:13.895Z,74.80
2023-12-19T11:29:44.256Z,74.68
2023-12-19T11:39:48.949Z,74.57
2023-12-19T11:49:53.305Z,74.41
2023-12-19T11:59:57.643Z,74.23
2023-12-19T12:10:05.864Z,73.83
2023-12-19T12:20:11.083Z,73.50
2023-12-19T12:30:15.313Z,73.32
2023-12-19T12:40:19.445Z,73.53
2023-12-19T12:50:23.547Z,73.83
2023-12-19T13:00:27.757Z,74.04
2023-12-19T13:10:33.380Z,74.17
2023-12-19T13:20:39.140Z,74.38
2023-12-19T13:30:44.126Z,74.81
2023-12-19T13:40:48.787Z,75.19
2023-12-19T13:50:52.868Z,75.57
2023-12-19T14:00:57.196Z,75.92
2023-12-19T14:11:01.802Z,76.09
2023-12-19T14:21:06.070Z,75.93
2023-12-19T14:31:14.254Z,75.61
2023-12-19T14:41:19.243Z,75.45
2023-12-19T14:51:23.176Z,75.41
2023-12-19T15:01:28.696Z,74.90
2023-12-19T15:11:33.759Z,74.64
2023-12-19T15:21:37.655Z,74.94
2023-12-19T15:31:43.763Z,75.12
2023-12-19T15:41:47.798Z,75.27
2023-12-19T15:51:52.117Z,75.21
2023-12-19T16:01:56.273Z,75.09
2023-12-19T16:12:00.383Z,75.08
2023-12-19T16:22:05.473Z,74.95
2023-12-19T16:32:09.635Z,75.32
2023-12-19T16:42:16.837Z,75.60
2023-12-19T16:52:21.554Z,75.73
2023-12-19T17:02:25.846Z,75.70
2023-12-19T17:12:29.753Z,75.95
2023-12-19T17:22:33.823Z,75.85
2023-12-19T17:32:37.896Z,75.69
2023-12-19T17:42:42.246Z,75.73
2023-12-19T17:52:46.670Z,75.95
2023-12-19T18:02:53.321Z,75.68
2023-12-19T18:12:57.761Z,75.55
2023-12-19T18:23:03.694Z,75.39
2023-12-19T18:33:07.814Z,75.38
2023-12-19T18:43:11.905Z,75.22
2023-12-19T18:53:16.054Z,75.07
2023-12-19T19:03:20.052Z,74.85
2023-12-19T19:13:24.358Z,74.64
2023-12-19T19:23:29.147Z,74.57
2023-12-19T19:33:34.812Z,74.08
2023-12-19T19:43:43.599Z,73.93
2023-12-19T19:53:48.017Z,73.84
2023-12-19T20:03:51.906Z,73.80
2023-12-19T20:13:55.858Z,73.88
2023-12-19T20:24:02.371Z,73.92
2023-12-19T20:34:09.279Z,73.94
2023-12-19T20:44:13.398Z,73.90
2023-12-19T20:54:20.450Z,74.05
2023-12-19T21:04:24.960Z,73.76
2023-12-19T21:14:28.995Z,73.53
2023-12-19T21:24:34.157Z,73.71
2023-12-19T21:34:38.522Z,73.77
2023-12-19T21:44:42.506Z,73.77
2023-12-19T21:54:46.421Z,74.19
2023-12-19T22:04:50.641Z,74.20
2023-12-19T22:14:54.628Z,74.29
2023-12-19T22:24:58.516Z,73.97
2023-12-19T22:35:02.479Z,73.67
2023-12-19T22:45:07.273Z,73.26
2023-12-19T22:55:11.504Z,73.29
2023-12-19T23:05:15.501Z,73.34
2023-12-19T23:15:19.384Z,73.30
2023-12-19T23:25:23.479Z,73.50
2023-12-19T23:35:27.465Z,73.84
2023-12-19T23:45:31.320Z,74.03
2023-12-19T23:55:35.221Z,74.11
